createdAt,value
2023-02-19T00:01:10.632Z,78.86
2023-02-19T00:03:52.316Z,79.99
2023-02-19T00:06:25.684Z,79.01
2023-02-19T00:08:58.089Z,79.11
2023-02-19T00:11:32.015Z,79.34
2023-02-19T00:14:05.270Z,79.39
2023-02-19T00:16:39.717Z,79.67
2023-02-19T00:19:16.615Z,79.33
2023-02-19T00:21:49.683Z,79.07
2023-02-19T00:24:22.246Z,79.17
2023-02-19T00:26:54.586Z,79.99
2023-02-19T00:29:26.871Z,80.21
2023-02-19T00:32:00.240Z,80.47
2023-02-19T00:34:32.564Z,80.32
2023-02-19T00:37:04.715Z,80.55
2023-02-19T00:39:37.603Z,80.22
2023-02-19T00:42:09.906Z,80.19
2023-02-19T00:44:42.022Z,81.12
2023-02-19T00:47:14.223Z,81.17
2023-02-19T00:49:46.560Z,80.97
2023-02-19T00:52:18.784Z,81.41
2023-02-19T00:54:51.028Z,81.11
2023-02-19T00:57:23.061Z,82.08
2023-02-19T00:59:55.359Z,82.16
2023-02-19T01:02:27.847Z,81.81
2023-02-19T01:05:00.832Z,82.54
2023-02-19T01:07:32.864Z,82.26
2023-02-19T01:10:06.596Z,82.34
2023-02-19T01:12:38.808Z,82.86
2023-02-19T01:15:11.782Z,83.61
2023-02-19T01:17:43.890Z,83.04
2023-02-19T01:20:16.056Z,83.23
2023-02-19T01:22:48.322Z,83.18
2023-02-19T01:25:20.817Z,83.15
2023-02-19T01:27:52.867Z,82.79
2023-02-19T01:30:25.102Z,83.29
2023-02-19T01:32:57.358Z,83.07
2023-02-19T01:35:29.685Z,83.43
2023-02-19T01:38:02.505Z,82.66
2023-02-19T01:40:34.677Z,82.89
2023-02-19T01:43:12.296Z,82.96
2023-02-19T01:45:46.551Z,82.83
2023-02-19T01:48:22.315Z,82.98
2023-02-19T01:50:59.697Z,83.45
2023-02-19T01:53:38.867Z,83.15
2023-02-19T01:56:11.926Z,83.15
2023-02-19T01:58:45.165Z,82.48
2023-02-19T02:01:18.458Z,82.16
2023-02-19T02:03:53.041Z,82.13
2023-02-19T02:06:28.664Z,82.16
2023-02-19T02:09:20.865Z,81.96
2023-02-19T02:11:54.730Z,81.48
2023-02-19T02:14:31.517Z,81.72
2023-02-19T02:17:13.713Z,81.57
2023-02-19T02:20:13.769Z,81.96
2023-02-19T02:22:50.827Z,82.01
2023-02-19T02:25:44.424Z,81.75
2023-02-19T02:28:42.365Z,81.41
2023-02-19T02:31:18.443Z,81.77
2023-02-19T02:33:52.357Z,81.80
2023-02-19T02:36:28.724Z,82.46
2023-02-19T02:39:05.480Z,82.20
2023-02-19T02:41:45.465Z,82.19
2023-02-19T02:44:17.736Z,81.29
2023-02-19T02:46:51.828Z,80.58
2023-02-19T02:49:26.081Z,80.56
2023-02-19T02:52:20.925Z,80.36
2023-02-19T02:55:05.426Z,80.49
2023-02-19T02:57:38.386Z,80.80
2023-02-19T03:00:13.418Z,81.08
2023-02-19T03:02:46.823Z,81.07
2023-02-19T03:05:39.893Z,81.05
2023-02-19T03:08:16.904Z,80.80
2023-02-19T03:10:56.602Z,80.60
2023-02-19T03:13:53.045Z,80.61
2023-02-19T03:16:50.386Z,81.13
2023-02-19T03:19:24.606Z,81.38
2023-02-19T03:22:10.390Z,81.16
2023-02-19T03:25:04.129Z,81.21
2023-02-19T03:27:39.814Z,81.25
2023-02-19T03:30:18.166Z,81.36
2023-02-19T03:32:56.274Z,81.41
2023-02-19T03:35:31.808Z,81.30
2023-02-19T03:38:10.502Z,81.77
2023-02-19T03:40:46.686Z,82.19
2023-02-19T03:43:23.290Z,81.82
2023-02-19T03:46:06.068Z,81.85
2023-02-19T03:48:42.645Z,81.91
2023-02-19T03:51:27.939Z,82.02
2023-02-19T03:54:12.580Z,82.55
2023-02-19T03:56:51.726Z,82.58
2023-02-19T03:59:33.616Z,82.27
2023-02-19T04:02:08.893Z,82.52
2023-02-19T04:04:40.933Z,82.36
2023-02-19T04:07:14.632Z,82.21
2023-02-19T04:09:50.798Z,82.65
2023-02-19T04:12:24.909Z,82.90
2023-02-19T04:15:01.543Z,83.22
2023-02-19T04:17:37.511Z,83.10
2023-02-19T04:20:12.667Z,83.32
2023-02-19T04:22:45.277Z,82.90
2023-02-19T04:25:17.613Z,82.93
2023-02-19T04:27:50.310Z,82.64
2023-02-19T04:30:23.494Z,83.09
2023-02-19T04:32:55.663Z,83.45
2023-02-19T04:35:27.785Z,83.03
2023-02-19T04:38:00.400Z,82.72
2023-02-19T04:40:32.674Z,82.73
2023-02-19T04:43:04.762Z,82.95
2023-02-19T04:45:38.212Z,83.22
2023-02-19T04:48:10.850Z,83.60
2023-02-19T04:50:43.560Z,83.48
2023-02-19T04:53:15.722Z,83.03
2023-02-19T04:55:48.673Z,83.22
2023-02-19T04:58:21.863Z,83.34
2023-02-19T05:00:56.585Z,83.42
2023-02-19T05:03:28.771Z,83.32
2023-02-19T05:06:03.332Z,83.70
2023-02-19T05:08:35.495Z,83.97
2023-02-19T05:11:10.810Z,83.61
2023-02-19T05:13:43.475Z,83.23
2023-02-19T05:16:17.432Z,83.27
2023-02-19T05:18:49.840Z,83.54
2023-02-19T05:21:22.274Z,83.32
2023-02-19T05:23:55.229Z,83.47
2023-02-19T05:26:27.371Z,83.35
2023-02-19T05:29:00.617Z,83.68
2023-02-19T05:31:33.970Z,83.44
2023-02-19T05:34:06.503Z,83.64
2023-02-19T05:36:38.932Z,83.90
2023-02-19T05:39:12.902Z,83.41
2023-02-19T05:41:45.545Z,83.51
2023-02-19T05:44:17.712Z,83.18
2023-02-19T05:46:49.847Z,83.78
2023-02-19T05:49:22.162Z,83.21
2023-02-19T05:51:54.901Z,83.20
2023-02-19T05:54:29.576Z,83.15
2023-02-19T05:57:01.959Z,82.91
2023-02-19T05:59:34.272Z,82.80
2023-02-19T06:02:06.341Z,82.72
2023-02-19T06:04:39.016Z,82.83
2023-02-19T06:07:11.097Z,82.61
2023-02-19T06:09:43.271Z,82.92
2023-02-19T06:12:15.524Z,82.52
2023-02-19T06:14:47.730Z,82.29
2023-02-19T06:17:20.090Z,82.80
2023-02-19T06:19:52.540Z,82.73
2023-02-19T06:22:25.215Z,82.69
2023-02-19T06:24:57.713Z,83.08
2023-02-19T06:27:30.014Z,82.90
2023-02-19T06:30:02.266Z,83.12
2023-02-19T06:32:34.521Z,83.17
2023-02-19T06:35:07.323Z,83.40
2023-02-19T06:37:40.347Z,83.96
2023-02-19T06:40:13.708Z,83.24
2023-02-19T06:42:45.959Z,83.73
2023-02-19T06:45:18.134Z,83.71
2023-02-19T06:47:50.342Z,83.15
2023-02-19T06:50:22.595Z,83.69
2023-02-19T06:52:54.738Z,83.47
2023-02-19T06:55:27.046Z,83.57
2023-02-19T06:57:59.328Z,83.87
2023-02-19T07:00:31.565Z,83.80
2023-02-19T07:03:05.527Z,84.58
2023-02-19T07:05:37.966Z,84.46
2023-02-19T07:08:10.609Z,84.63
2023-02-19T07:10:42.813Z,83.93
2023-02-19T07:13:15.164Z,84.30
2023-02-19T07:15:47.377Z,84.09
2023-02-19T07:18:19.796Z,84.05
2023-02-19T07:20:52.065Z,84.51
2023-02-19T07:23:24.445Z,84.82
2023-02-19T07:25:56.542Z,84.90
2023-02-19T07:28:28.815Z,84.57
2023-02-19T07:31:05.372Z,84.57
2023-02-19T07:33:37.626Z,84.53
2023-02-19T07:36:12.043Z,84.12
2023-02-19T07:38:44.649Z,83.99
2023-02-19T07:41:17.317Z,84.12
2023-02-19T07:43:49.570Z,84.00
2023-02-19T07:46:22.350Z,84.33
2023-02-19T07:48:54.762Z,84.02
2023-02-19T07:51:27.522Z,83.97
2023-02-19T07:54:00.292Z,83.99
2023-02-19T07:56:32.708Z,83.84
2023-02-19T07:59:04.968Z,83.61
2023-02-19T08:01:56.056Z,83.61
2023-02-19T08:04:28.356Z,83.78
2023-02-19T08:07:00.489Z,83.79
2023-02-19T08:09:32.766Z,83.74
2023-02-19T08:12:22.892Z,83.83
2023-02-19T08:14:55.383Z,83.72
2023-02-19T08:17:27.833Z,83.73
2023-02-19T08:20:00.044Z,83.70
2023-02-19T08:22:32.238Z,83.92
2023-02-19T08:25:04.445Z,84.55
2023-02-19T08:27:36.681Z,84.26
2023-02-19T08:30:10.604Z,84.72
2023-02-19T08:32:42.921Z,84.58
2023-02-19T08:35:15.403Z,84.56
2023-02-19T08:37:47.563Z,84.91
2023-02-19T08:40:20.087Z,85.26
2023-02-19T08:42:52.516Z,85.77
2023-02-19T08:45:24.623Z,85.37
2023-02-19T08:47:56.728Z,85.79
2023-02-19T08:50:29.130Z,85.63
2023-02-19T08:53:02.793Z,85.87
2023-02-19T08:55:35.483Z,85.77
2023-02-19T08:58:08.175Z,85.67
2023-02-19T09:00:40.454Z,85.81
2023-02-19T09:03:13.705Z,85.73
2023-02-19T09:05:46.962Z,85.38
2023-02-19T09:08:19.665Z,85.07
2023-02-19T09:11:03.499Z,85.39
2023-02-19T09:13:35.927Z,85.17
2023-02-19T09:16:09.089Z,85.59
2023-02-19T09:18:41.426Z,85.48
2023-02-19T09:21:13.904Z,85.30
2023-02-19T09:23:46.327Z,85.05
2023-02-19T09:26:18.476Z,85.30
2023-02-19T09:28:50.755Z,85.31
2023-02-19T09:31:23.055Z,85.06
2023-02-19T09:33:55.194Z,84.91
2023-02-19T09:36:27.394Z,84.42
2023-02-19T09:39:00.778Z,84.39
2023-02-19T09:41:35.920Z,84.40
2023-02-19T09:44:12.058Z,84.49
2023-02-19T09:46:44.517Z,84.52
2023-02-19T09:49:19.912Z,84.72
2023-02-19T09:51:57.592Z,84.67
2023-02-19T09:54:31.731Z,84.45
2023-02-19T09:57:05.899Z,84.44
2023-02-19T09:59:45.651Z,84.55
2023-02-19T10:02:20.807Z,84.79
2023-02-19T10:04:55.011Z,84.60
2023-02-19T10:07:31.779Z,84.67
2023-02-19T10:10:19.690Z,84.13
2023-02-19T10:12:55.417Z,84.18
2023-02-19T10:15:33.177Z,83.84
2023-02-19T10:18:08.855Z,83.98
2023-02-19T10:20:43.255Z,84.17
2023-02-19T10:23:17.910Z,84.28
2023-02-19T10:25:55.014Z,84.26
2023-02-19T10:28:31.631Z,84.02
2023-02-19T10:31:06.406Z,83.51
2023-02-19T10:33:52.567Z,83.45
2023-02-19T10:36:34.259Z,83.50
2023-02-19T10:39:29.660Z,83.08
2023-02-19T10:42:02.162Z,83.30
2023-02-19T10:44:43.541Z,83.31
2023-02-19T10:47:22.045Z,83.28
2023-02-19T10:49:56.893Z,82.76
2023-02-19T10:52:35.365Z,83.20
2023-02-19T10:55:32.062Z,82.93
2023-02-19T10:58:27.084Z,82.42
2023-02-19T11:04:18.927Z,81.73
2023-02-19T11:06:51.254Z,82.06
2023-02-19T11:09:36.122Z,81.31
2023-02-19T11:12:10.788Z,81.64
2023-02-19T11:14:46.228Z,81.27
2023-02-19T11:17:26.345Z,81.24
2023-02-19T11:20:00.791Z,81.17
2023-02-19T11:22:39.702Z,81.60
2023-02-19T11:25:25.587Z,81.75
2023-02-19T11:28:00.512Z,81.35
2023-02-19T11:30:44.041Z,81.45
2023-02-19T11:33:28.636Z,81.29
2023-02-19T11:36:27.230Z,80.92
2023-02-19T11:39:03.680Z,81.86
2023-02-19T11:42:09.367Z,81.89
2023-02-19T11:44:55.474Z,82.27
2023-02-19T11:48:04.663Z,81.77
2023-02-19T11:50:51.967Z,81.91
2023-02-19T11:53:28.632Z,81.88
2023-02-19T11:56:12.391Z,81.86
2023-02-19T11:59:05.110Z,81.85
2023-02-19T12:02:12.833Z,81.42
2023-02-19T12:05:12.283Z,81.40
2023-02-19T12:08:37.217Z,81.25
2023-02-19T12:11:38.073Z,81.96
2023-02-19T12:14:28.099Z,81.64
2023-02-19T12:17:07.035Z,81.53
2023-02-19T12:19:58.544Z,81.24
2023-02-19T12:22:42.029Z,81.54
2023-02-19T12:25:47.581Z,81.94
2023-02-19T12:28:35.400Z,81.51
2023-02-19T12:31:28.565Z,81.47
2023-02-19T12:34:30.815Z,81.36
2023-02-19T12:37:15.728Z,81.49
2023-02-19T12:39:59.564Z,80.35
2023-02-19T12:42:47.343Z,80.84
2023-02-19T12:45:25.875Z,80.43
2023-02-19T12:48:06.572Z,80.35
2023-02-19T12:50:43.779Z,79.71
2023-02-19T12:53:35.691Z,79.24
2023-02-19T12:56:15.912Z,78.39
2023-02-19T12:58:52.839Z,78.28
2023-02-19T13:01:30.305Z,79.03
2023-02-19T13:04:16.163Z,79.40
2023-02-19T13:06:54.117Z,79.86
2023-02-19T13:09:31.191Z,79.95
2023-02-19T13:12:09.067Z,79.71
2023-02-19T13:14:46.401Z,79.43
2023-02-19T13:17:28.257Z,79.34
2023-02-19T13:20:09.960Z,79.21
2023-02-19T13:23:05.366Z,78.77
2023-02-19T13:25:55.174Z,79.48
2023-02-19T13:28:50.161Z,79.38
2023-02-19T13:31:33.342Z,79.56
2023-02-19T13:34:18.861Z,79.39
2023-02-19T13:36:52.164Z,78.97
2023-02-19T13:39:25.933Z,78.64
2023-02-19T13:42:00.330Z,78.65
2023-02-19T13:44:35.616Z,78.39
2023-02-19T13:47:28.592Z,78.84
2023-02-19T13:50:09.967Z,79.03
2023-02-19T13:52:46.624Z,79.32
2023-02-19T13:55:53.145Z,79.68
2023-02-19T13:58:56.308Z,79.45
2023-02-19T14:02:12.322Z,79.48
2023-02-19T14:04:50.544Z,78.84
2023-02-19T14:07:55.549Z,78.54
2023-02-19T14:11:03.611Z,78.82
2023-02-19T14:14:30.421Z,78.61
2023-02-19T14:17:26.161Z,78.85
2023-02-19T14:20:01.402Z,78.91
2023-02-19T14:23:01.688Z,78.72
2023-02-19T14:25:56.698Z,77.77
2023-02-19T14:28:39.262Z,78.11
2023-02-19T14:31:18.107Z,77.67
2023-02-19T14:33:53.581Z,78.05
2023-02-19T14:36:45.309Z,77.76
2023-02-19T14:39:21.371Z,77.79
2023-02-19T14:41:58.407Z,77.66
2023-02-19T14:44:36.958Z,77.40
2023-02-19T14:47:15.060Z,77.25
2023-02-19T14:49:53.825Z,77.24
2023-02-19T14:52:30.681Z,77.42
2023-02-19T14:55:10.239Z,76.53
2023-02-19T14:57:46.402Z,76.91
2023-02-19T15:00:30.124Z,77.10
2023-02-19T15:03:04.505Z,77.14
2023-02-19T15:05:39.079Z,77.27
2023-02-19T15:08:21.537Z,77.08
2023-02-19T15:10:54.500Z,76.77
2023-02-19T15:13:30.729Z,77.14
2023-02-19T15:16:03.805Z,77.36
2023-02-19T15:18:38.385Z,77.74
2023-02-19T15:21:21.115Z,77.56
2023-02-19T15:23:55.321Z,77.13
2023-02-19T15:26:34.472Z,77.21
2023-02-19T15:29:11.199Z,76.93
2023-02-19T15:31:49.920Z,77.00
2023-02-19T15:34:24.438Z,76.97
2023-02-19T15:37:01.413Z,76.86
2023-02-19T15:39:39.976Z,76.98
2023-02-19T15:42:18.491Z,77.23
2023-02-19T15:44:57.309Z,77.15
2023-02-19T15:47:36.026Z,76.76
2023-02-19T15:50:17.331Z,76.46
2023-02-19T15:52:59.434Z,76.67
2023-02-19T15:55:35.444Z,75.73
2023-02-19T15:58:16.343Z,76.26
2023-02-19T16:00:54.577Z,75.84
2023-02-19T16:03:29.631Z,76.00
2023-02-19T16:06:05.419Z,75.95
2023-02-19T16:08:40.377Z,75.99
2023-02-19T16:11:30.475Z,76.26
2023-02-19T16:14:30.156Z,76.61
2023-02-19T16:17:14.174Z,76.82
2023-02-19T16:19:54.203Z,77.33
2023-02-19T16:22:31.192Z,77.21
2023-02-19T16:25:08.123Z,77.20
2023-02-19T16:27:43.458Z,77.11
2023-02-19T16:30:28.650Z,77.10
2023-02-19T16:33:33.097Z,77.01
2023-02-19T16:39:20.130Z,77.09
2023-02-19T16:42:21.555Z,77.42
2023-02-19T16:44:54.336Z,77.50
2023-02-19T16:47:32.982Z,77.76
2023-02-19T16:50:12.848Z,77.93
2023-02-19T16:52:56.331Z,78.30
2023-02-19T16:55:30.508Z,78.44
2023-02-19T16:58:02.961Z,78.22
2023-02-19T17:00:35.390Z,78.10
2023-02-19T17:03:12.197Z,78.00
2023-02-19T17:05:45.077Z,77.35
2023-02-19T17:08:34.279Z,77.36
2023-02-19T17:11:11.931Z,77.16
2023-02-19T17:13:46.426Z,77.17
2023-02-19T17:16:23.264Z,76.86
2023-02-19T17:18:59.139Z,76.32
2023-02-19T17:21:33.564Z,76.61
2023-02-19T17:24:06.399Z,76.69
2023-02-19T17:26:39.580Z,76.97
2023-02-19T17:29:18.539Z,77.01
2023-02-19T17:31:51.750Z,76.61
2023-02-19T17:34:24.514Z,76.69
2023-02-19T17:36:56.998Z,76.28
2023-02-19T17:39:30.169Z,76.17
2023-02-19T17:42:02.683Z,75.96
2023-02-19T17:44:34.838Z,75.83
2023-02-19T17:47:07.551Z,75.84
2023-02-19T17:49:39.874Z,75.71
2023-02-19T17:52:17.178Z,75.59
2023-02-19T17:54:49.468Z,75.81
2023-02-19T17:57:22.103Z,76.15
2023-02-19T17:59:54.671Z,76.25
2023-02-19T18:02:27.287Z,76.94
2023-02-19T18:04:59.459Z,77.36
2023-02-19T18:07:33.194Z,77.42
2023-02-19T18:10:06.301Z,76.98
2023-02-19T18:12:39.153Z,76.93
2023-02-19T18:15:17.248Z,76.81
2023-02-19T18:17:50.514Z,76.54
2023-02-19T18:20:25.122Z,76.58
2023-02-19T18:22:58.025Z,76.65
2023-02-19T18:25:30.592Z,76.45
2023-02-19T18:28:02.886Z,76.50
2023-02-19T18:30:35.856Z,76.42
2023-02-19T18:33:13.854Z,76.31
2023-02-19T18:35:47.526Z,76.59
2023-02-19T18:38:19.783Z,76.03
2023-02-19T18:40:52.118Z,76.41
2023-02-19T18:43:24.603Z,76.33
2023-02-19T18:45:56.989Z,76.65
2023-02-19T18:48:29.725Z,76.37
2023-02-19T18:51:01.945Z,76.35
2023-02-19T18:53:34.279Z,76.40
2023-02-19T18:56:09.234Z,75.87
2023-02-19T18:58:41.566Z,75.69
2023-02-19T19:01:15.981Z,75.73
2023-02-19T19:03:48.519Z,76.14
2023-02-19T19:06:20.800Z,76.35
2023-02-19T19:08:53.348Z,76.20
2023-02-19T19:11:27.019Z,76.77
2023-02-19T19:13:59.655Z,77.13
2023-02-19T19:16:33.307Z,77.03
2023-02-19T19:19:06.146Z,77.16
2023-02-19T19:21:38.600Z,77.18
2023-02-19T19:24:11.754Z,77.37
2023-02-19T19:26:48.389Z,77.22
2023-02-19T19:29:22.430Z,77.07
2023-02-19T19:31:54.735Z,77.20
2023-02-19T19:34:27.126Z,76.82
2023-02-19T19:36:59.752Z,76.47
2023-02-19T19:39:32.272Z,77.10
2023-02-19T19:42:05.108Z,76.72
2023-02-19T19:44:37.838Z,76.49
2023-02-19T19:47:10.315Z,76.72
2023-02-19T19:49:43.199Z,77.00
2023-02-19T19:52:16.036Z,77.09
2023-02-19T19:54:48.349Z,77.23
2023-02-19T19:57:27.499Z,77.10
2023-02-19T20:00:02.409Z,77.48
2023-02-19T20:02:46.957Z,76.85
2023-02-19T20:05:19.561Z,75.94
2023-02-19T20:07:52.167Z,76.52
2023-02-19T20:10:24.812Z,76.26
2023-02-19T20:12:56.973Z,76.45
2023-02-19T20:15:29.150Z,76.49
2023-02-19T20:18:02.845Z,76.66
2023-02-19T20:20:35.321Z,77.00
2023-02-19T20:23:07.905Z,77.09
2023-02-19T20:25:40.582Z,77.12
2023-02-19T20:28:12.854Z,76.93
2023-02-19T20:30:45.378Z,77.18
2023-02-19T20:33:17.873Z,77.02
2023-02-19T20:35:50.442Z,76.37
2023-02-19T20:38:22.682Z,76.76
2023-02-19T20:40:54.825Z,76.58
2023-02-19T20:43:28.537Z,76.65
2023-02-19T20:46:01.454Z,76.65
2023-02-19T20:48:33.723Z,76.32
2023-02-19T20:51:06.348Z,75.95
2023-02-19T20:53:40.874Z,75.89
2023-02-19T20:56:13.754Z,75.93
2023-02-19T20:58:46.619Z,75.51
2023-02-19T21:01:18.936Z,75.37
2023-02-19T21:03:51.593Z,75.64
2023-02-19T21:06:24.786Z,75.51
2023-02-19T21:08:57.162Z,75.92
2023-02-19T21:11:31.205Z,75.59
2023-02-19T21:14:03.320Z,75.41
2023-02-19T21:16:36.014Z,74.75
2023-02-19T21:19:08.496Z,75.02
2023-02-19T21:21:40.884Z,74.89
2023-02-19T21:24:16.132Z,74.61
2023-02-19T21:26:48.382Z,74.83
2023-02-19T21:29:22.455Z,74.36
2023-02-19T21:31:56.410Z,75.04
2023-02-19T21:34:30.513Z,75.43
2023-02-19T21:37:02.657Z,75.36
2023-02-19T21:39:34.986Z,75.48
2023-02-19T21:42:07.301Z,75.32
2023-02-19T21:44:41.254Z,75.22
2023-02-19T21:47:14.742Z,74.83
2023-02-19T21:49:47.218Z,74.90
2023-02-19T21:52:19.881Z,74.80
2023-02-19T21:54:52.388Z,74.77
2023-02-19T21:57:24.624Z,75.20
2023-02-19T21:59:57.229Z,75.25
2023-02-19T22:02:30.665Z,75.17
2023-02-19T22:05:03.334Z,74.92
2023-02-19T22:07:35.628Z,75.15
2023-02-19T22:10:09.791Z,75.06
2023-02-19T22:12:41.988Z,75.37
2023-02-19T22:15:15.383Z,75.49
2023-02-19T22:17:47.447Z,75.82
2023-02-19T22:20:19.946Z,76.33
2023-02-19T22:22:52.139Z,76.03
2023-02-19T22:25:24.561Z,75.82
2023-02-19T22:27:57.254Z,75.57
2023-02-19T22:30:30.986Z,75.19
2023-02-19T22:33:03.471Z,75.12
2023-02-19T22:35:36.221Z,74.95
2023-02-19T22:38:08.258Z,74.95
2023-02-19T22:40:40.613Z,75.15
2023-02-19T22:43:12.721Z,74.90
2023-02-19T22:45:44.978Z,74.91
2023-02-19T22:48:29.420Z,75.21
2023-02-19T22:51:02.718Z,74.70
2023-02-19T22:53:34.848Z,75.10
2023-02-19T22:56:07.498Z,75.44
2023-02-19T22:58:39.560Z,75.69
2023-02-19T23:01:13.044Z,75.19
2023-02-19T23:03:54.348Z,74.97
2023-02-19T23:06:29.660Z,75.11
2023-02-19T23:09:03.724Z,75.06
2023-02-19T23:11:39.399Z,74.92
2023-02-19T23:14:11.492Z,74.68
2023-02-19T23:16:43.555Z,74.67
2023-02-19T23:19:16.965Z,74.90
2023-02-19T23:21:49.526Z,75.20
2023-02-19T23:24:22.043Z,75.08
2023-02-19T23:26:55.118Z,74.98
2023-02-19T23:29:30.549Z,75.23
2023-02-19T23:32:02.723Z,75.41
2023-02-19T23:34:35.215Z,74.90
2023-02-19T23:37:07.996Z,74.77
2023-02-19T23:39:40.306Z,75.08
2023-02-19T23:42:16.932Z,75.27
2023-02-19T23:44:50.574Z,75.54
2023-02-19T23:47:23.191Z,75.51
2023-02-19T23:49:55.448Z,75.44
2023-02-19T23:52:27.678Z,75.37
2023-02-19T23:54:59.967Z,75.01
2023-02-19T23:57:32.223Z,75.09
